Fond-Du-Lac, Canada
Current Conditions -  °F | °C
As of 4:00 AM on Monday 22 Dec 2014 (Local Time) from CYSF Reporting Station
Overcast Overcast  
Wind Chill:   Ceiling: 700
Heat Index: 16°   Visibility: 9mi
Dew Point: 14°   Wind: 6mph
Humidity: 93%   Direction: 70°ENE
Pressure: 29.8"   Gusts: NA
Location:  59.32°N, 107.18°W
Report Text: CYSF 221000Z AUTO 07005KT 9SM OVC007 M09/M10 A2980 RMK SLP113
Loading
Personal Weather Stations






























Interactive Weather Map New forecast layout! Learn more

10-Day Weather Forecast

Advertisements
Track Severe Weather on mobile